LTBR/YEI METAR and TAF weather

Enter ICAO airport designator
Station Type Date Time Source
LTBR METAR 2020/09/27 17:20 UTC NOAA

LTBR 271720Z VRB02KT CAVOK 22/13 Q1016 NOSIG


Station Type Date Time Source
LTBR Decoded METAR 2020/09/27 17:20 UTC NOAA

Bursa / Yenisehir, Mil-Civ, Turkey (LTBR) 40-15-19N 029-33-45E
Sep 27, 2020 - 01:20 PM EDT / 2020.09.27 1720 UTC
Wind: Variable at 2 MPH (2 KT):0
Visibility: greater than 7 mile(s):0
Temperature: 71 F (22 C)
Dew Point: 55 F (13 C)
Relative Humidity: 56%
Pressure (altimeter): 30.00 in. Hg (1016 hPa)
ob: LTBR 271720Z VRB02KT CAVOK 22/13 Q1016 NOSIG
cycle: 17

Station Type Date Time Source
LTBR TAF 2020/09/27 18:03 UTC NOAA

TAF LTBR 271640Z 2718/2818 VRB02KT CAVOK PROB30 2812/2815 36012KT SCT035
BECMG 2815/2818 SCT035

Example: see airport list